createdAt,value
2019-01-29T00:02:12.739Z,231.43
2019-01-29T00:04:43.275Z,214.43
2019-01-29T00:07:13.965Z,203.87
2019-01-29T00:09:44.858Z,200.37
2019-01-29T00:12:16.017Z,195.17
2019-01-29T00:14:46.659Z,198.97
2019-01-29T00:17:17.409Z,206.10
2019-01-29T00:19:48.178Z,221.60
2019-01-29T00:22:18.878Z,216.63
2019-01-29T00:24:49.814Z,233.20
2019-01-29T00:27:20.423Z,198.30
2019-01-29T00:29:50.997Z,188.93
2019-01-29T00:32:21.550Z,196.90
2019-01-29T00:34:52.088Z,170.07
2019-01-29T00:37:22.632Z,162.47
2019-01-29T00:39:53.275Z,155.40
2019-01-29T00:42:24.041Z,154.27
2019-01-29T00:44:54.901Z,190.27
2019-01-29T00:47:25.655Z,197.23
2019-01-29T00:49:56.428Z,193.97
2019-01-29T00:52:27.450Z,216.90
2019-01-29T00:54:58.357Z,212.00
2019-01-29T00:57:29.142Z,211.80
2019-01-29T00:59:59.870Z,203.77
2019-01-29T01:02:30.424Z,258.73
2019-01-29T01:05:01.002Z,195.87
2019-01-29T01:07:31.502Z,210.27
2019-01-29T01:10:02.240Z,176.43
2019-01-29T01:12:32.883Z,209.57
2019-01-29T01:15:03.390Z,224.57
2019-01-29T01:17:34.071Z,159.73
2019-01-29T01:20:05.431Z,265.13
2019-01-29T01:22:35.998Z,156.57
2019-01-29T01:25:06.863Z,213.63
2019-01-29T01:27:37.504Z,182.17
2019-01-29T01:30:10.031Z,188.27
2019-01-29T01:32:40.633Z,173.53
2019-01-29T01:35:11.264Z,208.50
2019-01-29T01:37:41.817Z,176.57
2019-01-29T01:40:23.244Z,161.40
2019-01-29T01:42:53.943Z,154.70
2019-01-29T01:45:24.427Z,183.53
2019-01-29T01:47:55.017Z,183.90
2019-01-29T01:50:25.701Z,185.10
2019-01-29T01:52:59.450Z,160.03
2019-01-29T01:55:28.580Z,188.33
2019-01-29T01:57:59.167Z,190.83
2019-01-29T02:00:29.690Z,194.63
2019-01-29T02:03:00.266Z,188.87
2019-01-29T02:05:30.808Z,152.03
2019-01-29T02:08:01.371Z,147.83
2019-01-29T02:10:32.011Z,145.80
2019-01-29T02:13:02.556Z,190.77
2019-01-29T02:15:33.086Z,171.57
2019-01-29T02:18:03.654Z,198.27
2019-01-29T02:20:34.207Z,175.40
2019-01-29T02:23:08.219Z,182.80
2019-01-29T02:25:36.951Z,243.90
2019-01-29T02:28:08.498Z,212.07
2019-01-29T02:30:39.027Z,213.03
2019-01-29T02:33:09.539Z,214.83
2019-01-29T02:35:41.096Z,211.93
2019-01-29T02:38:11.675Z,171.47
2019-01-29T02:40:42.162Z,159.80
2019-01-29T02:43:12.777Z,216.07
2019-01-29T02:45:43.262Z,174.80
2019-01-29T02:48:13.807Z,163.03
2019-01-29T02:50:44.369Z,184.80
2019-01-29T02:53:18.383Z,196.87
2019-01-29T02:55:47.063Z,166.37
2019-01-29T02:58:17.710Z,175.67
2019-01-29T03:00:48.233Z,225.57
2019-01-29T03:03:18.775Z,224.80
2019-01-29T03:05:49.370Z,247.90
2019-01-29T03:08:19.986Z,208.90
2019-01-29T03:10:50.637Z,218.33
2019-01-29T03:13:21.278Z,315.97
2019-01-29T03:15:52.250Z,197.13
2019-01-29T03:18:22.802Z,265.17
2019-01-29T03:20:53.368Z,278.60
2019-01-29T03:23:27.535Z,226.17
2019-01-29T03:25:56.121Z,302.03
2019-01-29T03:28:26.675Z,232.43
2019-01-29T03:30:57.278Z,241.20
2019-01-29T03:33:27.810Z,293.60
2019-01-29T03:35:58.341Z,312.20
2019-01-29T03:38:28.851Z,246.33
2019-01-29T03:40:59.616Z,285.27
2019-01-29T03:43:30.166Z,205.23
2019-01-29T03:46:00.663Z,245.73
2019-01-29T03:48:31.322Z,328.23
2019-01-29T03:51:02.075Z,749.87
2019-01-29T03:53:38.229Z,435.10
2019-01-29T03:56:04.927Z,440.47
2019-01-29T03:58:35.376Z,529.50
2019-01-29T04:01:05.839Z,473.77
2019-01-29T04:03:36.306Z,538.53
2019-01-29T04:06:06.727Z,697.43
2019-01-29T04:08:37.195Z,648.90
2019-01-29T04:11:07.639Z,768.13
2019-01-29T04:13:38.085Z,729.10
2019-01-29T04:16:08.641Z,736.63
2019-01-29T04:18:39.116Z,1414.50
2019-01-29T04:21:09.600Z,640.10
2019-01-29T04:23:47.291Z,1576.67
2019-01-29T04:26:12.255Z,976.90
2019-01-29T04:28:42.711Z,709.67
2019-01-29T04:31:13.284Z,1837.13
2019-01-29T04:33:43.808Z,705.10
2019-01-29T04:36:14.268Z,1704.17
2019-01-29T04:38:44.789Z,905.40
2019-01-29T04:41:15.239Z,739.87
2019-01-29T04:43:45.688Z,908.97
2019-01-29T04:46:16.136Z,1174.70
2019-01-29T04:48:46.651Z,1455.60
2019-01-29T04:51:17.121Z,577.07
2019-01-29T04:53:56.836Z,965.03
2019-01-29T04:56:19.918Z,1449.47
2019-01-29T04:58:50.462Z,1019.30
2019-01-29T05:01:20.958Z,743.63
2019-01-29T05:03:51.661Z,804.00
2019-01-29T05:06:22.219Z,850.13
2019-01-29T05:08:52.645Z,489.90
2019-01-29T05:11:23.125Z,373.30
2019-01-29T05:13:53.689Z,356.57
2019-01-29T05:16:24.299Z,246.63
2019-01-29T05:18:54.806Z,279.57
2019-01-29T05:21:25.278Z,229.80
2019-01-29T05:23:55.851Z,265.00
2019-01-29T05:26:26.339Z,222.63
2019-01-29T05:28:56.818Z,242.13
2019-01-29T05:31:27.440Z,221.57
2019-01-29T05:33:58.023Z,307.77
2019-01-29T05:36:28.552Z,360.03
2019-01-29T05:38:59.028Z,304.43
2019-01-29T05:41:29.730Z,304.00
2019-01-29T05:44:00.267Z,371.87
2019-01-29T05:46:31.446Z,917.07
2019-01-29T05:49:01.929Z,1160.87
2019-01-29T05:51:32.409Z,1157.30
2019-01-29T05:54:02.876Z,714.97
2019-01-29T05:56:33.560Z,620.43
2019-01-29T05:59:04.032Z,715.10
2019-01-29T06:01:34.536Z,1222.67
2019-01-29T06:04:05.164Z,1743.30
2019-01-29T06:06:35.666Z,830.87
2019-01-29T06:09:08.790Z,1612.37
2019-01-29T06:11:39.247Z,587.67
2019-01-29T06:14:09.762Z,1578.70
2019-01-29T06:16:40.216Z,941.30
2019-01-29T06:19:10.619Z,1058.30
2019-01-29T06:21:41.101Z,998.60
2019-01-29T06:24:11.616Z,1246.37
2019-01-29T06:26:42.182Z,1701.87
2019-01-29T06:29:12.681Z,1646.53
2019-01-29T06:31:43.219Z,965.30
2019-01-29T06:34:13.697Z,1648.47
2019-01-29T06:36:44.154Z,1905.83
2019-01-29T06:39:14.618Z,1695.83
2019-01-29T06:41:46.083Z,658.57
2019-01-29T06:44:16.544Z,795.67
2019-01-29T06:46:47.009Z,646.60
2019-01-29T06:49:17.499Z,693.07
2019-01-29T06:51:48.131Z,555.90
2019-01-29T06:54:18.600Z,564.80
2019-01-29T06:56:49.069Z,807.33
2019-01-29T06:59:19.541Z,709.17
2019-01-29T07:01:49.999Z,567.33
2019-01-29T07:04:20.526Z,574.90
2019-01-29T07:06:50.991Z,574.33
2019-01-29T07:09:21.474Z,662.93
2019-01-29T07:12:00.359Z,881.90
2019-01-29T07:14:30.817Z,495.73
2019-01-29T07:17:12.886Z,242.40
2019-01-29T07:19:46.142Z,240.10
2019-01-29T07:22:16.603Z,249.03
2019-01-29T07:24:47.105Z,246.77
2019-01-29T07:27:17.566Z,261.87
2019-01-29T07:29:48.056Z,306.60
2019-01-29T07:32:18.580Z,268.47
2019-01-29T07:34:49.020Z,276.33
2019-01-29T07:37:22.145Z,310.83
2019-01-29T07:39:51.661Z,250.73
2019-01-29T07:42:22.075Z,229.60
2019-01-29T07:44:52.553Z,236.63
2019-01-29T07:47:23.019Z,271.53
2019-01-29T07:49:53.411Z,269.10
2019-01-29T07:52:23.875Z,257.27
2019-01-29T07:54:54.360Z,352.07
2019-01-29T07:57:24.776Z,250.97
2019-01-29T07:59:55.280Z,306.83
2019-01-29T08:02:25.769Z,250.57
2019-01-29T08:04:56.187Z,337.30
2019-01-29T08:07:26.675Z,419.27
2019-01-29T08:09:57.222Z,299.43
2019-01-29T08:12:27.734Z,391.67
2019-01-29T08:14:58.229Z,387.87
2019-01-29T08:17:28.727Z,295.03
2019-01-29T08:19:59.251Z,236.73
2019-01-29T08:22:29.750Z,280.47
2019-01-29T08:25:01.819Z,232.13
2019-01-29T08:27:32.466Z,261.37
2019-01-29T08:30:03.135Z,166.87
2019-01-29T08:32:33.637Z,137.90
2019-01-29T08:35:04.114Z,146.07
2019-01-29T08:37:35.601Z,140.40
2019-01-29T08:40:06.510Z,146.93
2019-01-29T08:42:36.962Z,131.97
2019-01-29T08:45:07.813Z,144.67
2019-01-29T08:47:38.330Z,134.80
2019-01-29T08:50:11.415Z,129.40
2019-01-29T08:52:42.141Z,129.50
2019-01-29T08:55:12.632Z,121.57
2019-01-29T08:57:43.091Z,130.47
2019-01-29T09:00:14.775Z,108.77
2019-01-29T09:02:45.304Z,107.73
2019-01-29T09:05:15.787Z,107.70
2019-01-29T09:07:46.474Z,118.30
2019-01-29T09:10:17.124Z,105.87
2019-01-29T09:12:47.625Z,112.43
2019-01-29T09:15:18.161Z,104.73
2019-01-29T09:17:48.690Z,119.17
2019-01-29T09:20:19.263Z,95.40
2019-01-29T09:22:49.719Z,100.93
2019-01-29T09:25:22.658Z,97.17
2019-01-29T09:27:52.331Z,99.77
2019-01-29T09:30:22.952Z,88.13
2019-01-29T09:32:53.416Z,118.40
2019-01-29T09:35:23.875Z,93.63
2019-01-29T09:37:54.365Z,96.93
2019-01-29T09:40:24.818Z,85.40
2019-01-29T09:42:55.231Z,89.33
2019-01-29T09:45:25.741Z,97.40
2019-01-29T09:47:56.201Z,118.47
2019-01-29T09:50:26.677Z,113.93
2019-01-29T09:52:57.143Z,104.63
2019-01-29T09:55:29.629Z,114.77
2019-01-29T09:58:00.041Z,127.30
2019-01-29T10:00:35.822Z,100.87
2019-01-29T10:03:06.503Z,101.30
2019-01-29T10:05:37.969Z,100.17
2019-01-29T10:08:08.479Z,103.43
2019-01-29T10:10:38.869Z,97.77
2019-01-29T10:13:09.323Z,97.40
2019-01-29T10:15:39.778Z,103.40
2019-01-29T10:18:10.249Z,125.03
2019-01-29T10:20:40.770Z,128.13
2019-01-29T10:23:12.246Z,115.97
2019-01-29T10:25:42.697Z,114.87
2019-01-29T10:28:13.363Z,115.60
2019-01-29T10:30:43.836Z,129.67
2019-01-29T10:33:14.336Z,131.37
2019-01-29T10:35:44.791Z,132.23
2019-01-29T10:38:15.289Z,126.77
2019-01-29T10:40:45.751Z,138.63
2019-01-29T10:43:16.424Z,154.37
2019-01-29T10:45:47.499Z,150.45
2019-01-29T10:48:17.959Z,575.37
2019-01-29T10:50:48.434Z,126.30
2019-01-29T10:53:19.501Z,130.87
2019-01-29T10:55:49.976Z,172.07
2019-01-29T10:58:20.513Z,362.83
2019-01-29T11:00:51.624Z,371.98
2019-01-29T11:03:22.686Z,151.87
2019-01-29T11:05:53.750Z,137.95
2019-01-29T11:08:24.861Z,129.42
2019-01-29T11:10:55.321Z,129.37
2019-01-29T11:13:26.435Z,139.77
2019-01-29T11:15:57.510Z,123.05
2019-01-29T11:18:27.970Z,101.07
2019-01-29T11:20:59.055Z,113.30
2019-01-29T11:23:29.575Z,113.60
2019-01-29T11:26:00.018Z,116.80
2019-01-29T11:28:31.113Z,107.90
2019-01-29T11:31:02.168Z,98.37
2019-01-29T11:33:33.230Z,102.45
2019-01-29T11:36:04.307Z,105.92
2019-01-29T11:38:35.378Z,99.32
2019-01-29T11:41:06.444Z,99.10
2019-01-29T11:43:37.498Z,111.22
2019-01-29T11:46:08.578Z,125.38
2019-01-29T11:48:39.641Z,105.10
2019-01-29T11:51:10.707Z,113.97
2019-01-29T11:53:41.835Z,125.07
2019-01-29T11:56:12.902Z,119.70
2019-01-29T11:58:43.954Z,112.70
2019-01-29T12:01:17.993Z,121.65
2019-01-29T12:03:49.065Z,121.77
2019-01-29T12:06:20.105Z,125.67
2019-01-29T12:08:51.188Z,111.25
2019-01-29T12:11:22.269Z,106.37
2019-01-29T12:13:53.336Z,104.35
2019-01-29T12:16:24.382Z,108.85
2019-01-29T12:18:55.413Z,106.90
2019-01-29T12:21:26.476Z,107.40
2019-01-29T12:23:57.769Z,104.67
2019-01-29T12:26:28.840Z,123.72
2019-01-29T12:28:59.816Z,124.70
2019-01-29T12:31:30.875Z,128.68
2019-01-29T12:34:01.921Z,115.08
2019-01-29T12:36:32.971Z,347.48
2019-01-29T12:39:07.746Z,132.20
2019-01-29T12:41:39.007Z,105.90
2019-01-29T12:44:10.064Z,88.27
2019-01-29T12:46:41.099Z,89.30
2019-01-29T12:49:12.134Z,84.75
2019-01-29T12:51:52.351Z,86.40
2019-01-29T12:54:23.440Z,104.92
2019-01-29T12:56:54.528Z,106.27
2019-01-29T12:59:25.598Z,93.92
2019-01-29T13:01:56.634Z,91.32
2019-01-29T13:04:27.679Z,89.97
2019-01-29T13:06:58.800Z,95.45
2019-01-29T13:09:29.881Z,96.87
2019-01-29T13:12:00.923Z,94.00
2019-01-29T13:14:31.966Z,90.53
2019-01-29T13:17:03.016Z,96.15
2019-01-29T13:19:34.082Z,101.50
2019-01-29T13:22:05.239Z,91.67
2019-01-29T13:24:36.308Z,90.10
2019-01-29T13:27:07.351Z,94.00
2019-01-29T13:29:38.369Z,89.03
2019-01-29T13:32:09.447Z,89.47
2019-01-29T13:34:40.506Z,106.45
2019-01-29T13:37:11.543Z,106.30
2019-01-29T13:39:42.589Z,97.37
2019-01-29T13:42:13.620Z,97.42
2019-01-29T13:44:44.660Z,97.20
2019-01-29T13:47:15.749Z,101.45
2019-01-29T13:49:46.825Z,98.30
2019-01-29T13:52:17.922Z,101.72
2019-01-29T13:54:49.030Z,99.10
2019-01-29T13:57:20.102Z,103.40
2019-01-29T13:59:51.170Z,103.83
2019-01-29T14:02:22.257Z,114.45
2019-01-29T14:04:53.296Z,161.92
2019-01-29T14:07:24.345Z,162.75
2019-01-29T14:09:58.135Z,160.48
2019-01-29T14:12:29.121Z,154.90
2019-01-29T14:15:00.275Z,151.47
2019-01-29T14:17:31.287Z,154.90
2019-01-29T14:20:02.341Z,146.85
2019-01-29T14:22:33.409Z,144.37
2019-01-29T14:25:04.680Z,314.77
2019-01-29T14:27:35.784Z,263.37
2019-01-29T14:30:09.397Z,230.07
2019-01-29T14:32:40.506Z,209.50
2019-01-29T14:35:11.551Z,221.75
2019-01-29T14:38:29.197Z,219.37
2019-01-29T14:41:00.844Z,214.60
2019-01-29T14:43:32.707Z,189.62
2019-01-29T14:46:03.786Z,136.82
2019-01-29T14:48:34.844Z,168.50
2019-01-29T14:51:05.951Z,176.12
2019-01-29T14:53:37.064Z,148.13
2019-01-29T14:56:08.137Z,137.97
2019-01-29T14:58:39.214Z,137.62
2019-01-29T15:01:10.316Z,166.12
2019-01-29T15:03:41.361Z,191.35
2019-01-29T15:06:12.525Z,169.77
2019-01-29T15:08:43.556Z,151.22
2019-01-29T15:11:14.740Z,172.72
2019-01-29T15:13:45.893Z,194.82
2019-01-29T15:16:31.286Z,199.07
2019-01-29T15:19:06.332Z,239.05
2019-01-29T15:21:38.217Z,315.43
2019-01-29T15:24:09.386Z,372.75
2019-01-29T15:26:39.903Z,237.00
2019-01-29T15:29:10.907Z,222.42
2019-01-29T15:31:41.969Z,247.50
2019-01-29T15:34:13.021Z,237.90
2019-01-29T15:36:44.206Z,274.93
2019-01-29T15:39:15.327Z,279.15
2019-01-29T15:41:45.816Z,246.90
2019-01-29T15:44:16.309Z,196.20
2019-01-29T15:46:47.355Z,219.50
2019-01-29T15:49:17.883Z,258.13
2019-01-29T15:51:48.330Z,324.53
2019-01-29T15:54:18.878Z,267.97
2019-01-29T15:56:49.331Z,250.17
2019-01-29T15:59:20.404Z,294.85
2019-01-29T16:01:50.858Z,285.30
2019-01-29T16:04:21.443Z,392.50
2019-01-29T16:06:51.919Z,286.17
2019-01-29T16:09:22.377Z,296.00
2019-01-29T16:11:52.834Z,320.70
2019-01-29T16:14:23.317Z,335.63
2019-01-29T16:16:53.793Z,338.57
2019-01-29T16:19:24.278Z,323.57
2019-01-29T16:21:54.738Z,369.80
2019-01-29T16:24:25.218Z,395.07
2019-01-29T16:26:55.752Z,421.07
2019-01-29T16:29:27.233Z,426.80
2019-01-29T16:31:57.725Z,440.87
2019-01-29T16:34:28.230Z,418.83
2019-01-29T16:36:58.822Z,429.03
2019-01-29T16:39:29.226Z,440.07
2019-01-29T16:41:59.711Z,444.87
2019-01-29T16:44:30.190Z,466.70
2019-01-29T16:47:00.674Z,526.33
2019-01-29T16:49:32.165Z,445.90
2019-01-29T16:52:02.674Z,396.43
2019-01-29T16:54:33.123Z,464.10
2019-01-29T16:57:03.623Z,469.57
2019-01-29T16:59:35.012Z,507.38
2019-01-29T17:02:05.841Z,464.90
2019-01-29T17:04:36.397Z,395.53
2019-01-29T17:07:08.793Z,442.33
2019-01-29T17:09:39.342Z,437.60
2019-01-29T17:12:09.837Z,508.13
2019-01-29T17:14:40.335Z,481.47
2019-01-29T17:17:11.234Z,459.20
2019-01-29T17:19:41.799Z,572.73
2019-01-29T17:22:12.345Z,679.70
2019-01-29T17:24:42.919Z,574.87
2019-01-29T17:27:13.421Z,519.50
2019-01-29T17:29:43.910Z,506.63
2019-01-29T17:32:14.402Z,554.97
2019-01-29T17:34:44.951Z,580.33
2019-01-29T17:37:15.477Z,631.93
2019-01-29T17:39:45.976Z,604.97
2019-01-29T17:42:18.050Z,741.80
2019-01-29T17:44:48.540Z,766.87
2019-01-29T17:47:19.038Z,818.63
2019-01-29T17:49:49.508Z,834.00
2019-01-29T17:52:20.097Z,759.03
2019-01-29T17:54:50.606Z,784.33
2019-01-29T17:57:21.101Z,569.30
2019-01-29T17:59:51.614Z,630.00
2019-01-29T18:02:23.146Z,664.30
2019-01-29T18:04:53.704Z,535.77
2019-01-29T18:07:24.284Z,580.50
2019-01-29T18:09:54.906Z,631.50
2019-01-29T18:12:25.415Z,644.37
2019-01-29T18:14:55.921Z,680.17
2019-01-29T18:17:26.418Z,604.47
2019-01-29T18:19:56.920Z,557.67
2019-01-29T18:22:27.403Z,688.00
2019-01-29T18:24:57.933Z,832.90
2019-01-29T18:27:28.437Z,629.77
2019-01-29T18:29:59.064Z,525.10
2019-01-29T18:32:29.537Z,717.00
2019-01-29T18:35:00.037Z,644.77
2019-01-29T18:37:30.586Z,710.67
2019-01-29T18:40:01.217Z,614.20
2019-01-29T18:42:31.968Z,518.67
2019-01-29T18:45:02.485Z,432.60
2019-01-29T18:47:33.070Z,671.27
2019-01-29T18:50:03.619Z,524.10
2019-01-29T18:52:35.123Z,695.70
2019-01-29T18:55:07.166Z,643.27
2019-01-29T18:57:37.684Z,687.13
2019-01-29T19:00:12.198Z,691.80
2019-01-29T19:02:42.700Z,571.90
2019-01-29T19:05:13.222Z,529.03
2019-01-29T19:07:44.906Z,721.27
2019-01-29T19:10:17.317Z,744.10
2019-01-29T19:12:49.736Z,737.00
2019-01-29T19:15:21.723Z,858.27
2019-01-29T19:17:53.219Z,1167.97
2019-01-29T19:20:24.748Z,1466.30
2019-01-29T19:22:55.222Z,1762.20
2019-01-29T19:25:25.732Z,1409.63
2019-01-29T19:27:56.196Z,1999.70
2019-01-29T19:30:28.956Z,1999.90
2019-01-29T19:32:59.445Z,1454.03
2019-01-29T19:35:29.948Z,1915.47
2019-01-29T19:38:01.515Z,1873.53
2019-01-29T19:40:32.030Z,1999.90
2019-01-29T19:43:02.573Z,1996.33
2019-01-29T19:45:34.177Z,1999.90
2019-01-29T19:48:05.684Z,794.73
2019-01-29T19:50:36.303Z,959.40
2019-01-29T19:53:06.835Z,1456.87
2019-01-29T19:55:37.363Z,1999.90
2019-01-29T19:58:09.169Z,1640.00
2019-01-29T20:00:42.938Z,1357.50
2019-01-29T20:03:13.522Z,1494.23
2019-01-29T20:05:44.020Z,1152.83
2019-01-29T20:08:14.507Z,981.40
2019-01-29T20:10:45.017Z,1187.50
2019-01-29T20:13:15.539Z,875.87
2019-01-29T20:15:46.087Z,1007.63
2019-01-29T20:18:16.671Z,1010.07
2019-01-29T20:20:47.166Z,964.57
2019-01-29T20:23:17.689Z,879.87
2019-01-29T20:25:49.161Z,783.40
2019-01-29T20:28:19.693Z,768.50
2019-01-29T20:30:50.428Z,884.87
2019-01-29T20:33:20.964Z,706.87
2019-01-29T20:35:51.457Z,620.50
2019-01-29T20:38:22.047Z,759.47
2019-01-29T20:40:52.546Z,883.83
2019-01-29T20:43:25.370Z,675.57
2019-01-29T20:45:55.482Z,1476.50
2019-01-29T20:48:25.975Z,1018.10
2019-01-29T20:50:56.470Z,1206.60
2019-01-29T20:53:27.006Z,1733.37
2019-01-29T20:55:57.749Z,1783.33
2019-01-29T20:58:28.227Z,1348.53
2019-01-29T21:00:58.784Z,1427.27
2019-01-29T21:03:29.292Z,1583.17
2019-01-29T21:05:59.832Z,1713.27
2019-01-29T21:08:30.354Z,1512.83
2019-01-29T21:11:00.846Z,1263.47
2019-01-29T21:13:31.317Z,1391.47
2019-01-29T21:16:01.814Z,1278.80
2019-01-29T21:18:32.321Z,909.83
2019-01-29T21:21:02.760Z,1654.53
2019-01-29T21:23:33.154Z,732.43
2019-01-29T21:26:03.642Z,1410.93
2019-01-29T21:28:34.170Z,1550.40
2019-01-29T21:31:04.647Z,1900.47
2019-01-29T21:33:35.118Z,1783.30
2019-01-29T21:36:05.604Z,1385.90
2019-01-29T21:38:36.074Z,1363.97
2019-01-29T21:41:06.571Z,981.07
2019-01-29T21:43:37.100Z,1307.20
2019-01-29T21:46:07.564Z,1464.83
2019-01-29T21:48:38.037Z,1725.23
2019-01-29T21:51:08.507Z,1187.30
2019-01-29T21:53:38.992Z,1151.70
2019-01-29T21:56:09.410Z,705.37
2019-01-29T21:58:39.900Z,590.80
2019-01-29T22:01:10.398Z,1131.53
2019-01-29T22:03:40.842Z,671.17
2019-01-29T22:06:11.307Z,759.20
2019-01-29T22:08:41.755Z,1294.93
2019-01-29T22:11:12.297Z,634.47
2019-01-29T22:13:42.783Z,548.93
2019-01-29T22:16:13.244Z,1086.00
2019-01-29T22:18:43.695Z,1752.73
2019-01-29T22:21:14.177Z,519.83
2019-01-29T22:23:44.600Z,527.83
2019-01-29T22:26:15.111Z,1231.93
2019-01-29T22:28:45.533Z,458.30
2019-01-29T22:31:15.926Z,572.27
2019-01-29T22:33:46.385Z,591.40
2019-01-29T22:36:16.862Z,534.93
2019-01-29T22:38:47.297Z,448.63
2019-01-29T22:41:17.765Z,520.73
2019-01-29T22:43:48.134Z,580.87
2019-01-29T22:46:18.594Z,404.73
2019-01-29T22:48:48.974Z,447.93
2019-01-29T22:51:19.478Z,503.67
2019-01-29T22:53:49.968Z,488.33
2019-01-29T22:56:20.437Z,461.67
2019-01-29T22:58:50.882Z,435.60
2019-01-29T23:01:33.458Z,505.53
2019-01-29T23:04:27.420Z,1120.17
2019-01-29T23:07:07.077Z,1469.40
2019-01-29T23:09:37.515Z,505.97
2019-01-29T23:12:07.968Z,481.33
2019-01-29T23:14:38.414Z,927.80
2019-01-29T23:17:08.885Z,671.73
2019-01-29T23:19:39.368Z,650.37
2019-01-29T23:22:10.109Z,819.03
2019-01-29T23:24:40.557Z,810.23
2019-01-29T23:27:11.138Z,1139.47
2019-01-29T23:29:43.562Z,1213.73
2019-01-29T23:32:13.763Z,1957.47
2019-01-29T23:34:44.133Z,1377.37
2019-01-29T23:37:14.605Z,1861.73
2019-01-29T23:39:45.062Z,638.70
2019-01-29T23:42:15.561Z,675.90
2019-01-29T23:44:45.942Z,1060.37
2019-01-29T23:47:16.338Z,1301.57
2019-01-29T23:49:46.793Z,1115.40
2019-01-29T23:52:17.253Z,1317.37
2019-01-29T23:54:47.706Z,875.03
2019-01-29T23:57:18.405Z,1132.33
2019-01-29T23:59:53.667Z,1408.27
